Time;durP1;ratioP1;P1;durP2;ratioP2;P2;SDS_P1;SDS_P2;PMS_P1;PMS_P2;Temp;Humidity;BMP_temperature;BMP_pressure;BME280_temperature;BME280_humidity;BME280_pressure;Samples;Min_cycle;Max_cycle;Signal;HPM_P1;HPM_P2
2024/02/02 00:01:54;;;;;;;;;;;;;;;;;;5048384;28;19929;-76
2024/02/02 00:04:21;;;;;;;;;;;;;;;;;;5046952;28;20051;-76
2024/02/02 00:06:48;;;;;;;;;;;;;;;;;;5046393;28;19928;-76
2024/02/02 00:09:15;;;;;;;;;;;;;;;;;;5046752;28;19932;-76
2024/02/02 00:11:42;;;;;;;;;;;;;;;;;;5045846;28;19972;-77
2024/02/02 00:14:09;;;;;;;;;;;;;;;;;;5047263;28;19929;-76
2024/02/02 00:16:37;;;;;;;;;;;;;;;;;;5046587;28;19936;-77
2024/02/02 00:19:04;;;;;;;;;;;;;;;;;;5048985;28;19928;-77
2024/02/02 00:21:31;;;;;;;;;;;;;;;;;;5046223;28;20362;-76
2024/02/02 00:23:58;;;;;;;;;;;;;;;;;;5043985;28;19937;-76
2024/02/02 00:26:25;;;;;;;;;;;;;;;;;;5045092;28;19978;-75
2024/02/02 00:28:52;;;;;;;;;;;;;;;;;;5045096;28;20343;-75
2024/02/02 00:31:21;;;;;;;;;;;;;;;;;;5048427;28;20497;-77
2024/02/02 00:33:49;;;;;;;;;;;;;;;;;;5047667;28;20474;-76
2024/02/02 00:36:16;;;;;;;;;;;;;;;;;;5049275;28;19928;-76
2024/02/02 00:38:43;;;;;;;;;;;;;;;;;;5047590;28;19994;-76
2024/02/02 00:41:10;;;;;;;;;;;;;;;;;;5048136;28;19929;-76
2024/02/02 00:43:37;;;;;;;;;;;;;;;;;;5048792;28;20379;-76
2024/02/02 00:46:04;;;;;;;;;;;;;;;;;;5048126;28;19929;-77
2024/02/02 00:48:32;;;;;;;;;;;;;;;;;;5048581;28;20258;-76
2024/02/02 00:50:59;;;;;;;;;;;;;;;;;;5048400;28;19929;-77
2024/02/02 00:53:26;;;;;;;;;;;;;;;;;;5049830;28;19974;-77
2024/02/02 00:55:53;;;;;;;;;;;;;;;;;;5049111;28;19982;-76
2024/02/02 00:58:20;;;;;;;;;;;;;;;;;;5048652;28;19929;-78
2024/02/02 01:00:47;;;;;;;;;;;;;;;;;;5048635;28;19929;-76
2024/02/02 01:03:14;;;;;;;;;;;;;;;;;;5049271;28;19933;-77
2024/02/02 01:05:42;;;;;;;;;;;;;;;;;;5049350;28;19929;-77
2024/02/02 01:08:09;;;;;;;;;;;;;;;;;;5049308;28;19935;-77
2024/02/02 01:10:36;;;;;;;;;;;;;;;;;;5049285;28;19928;-76
2024/02/02 01:13:03;;;;;;;;;;;;;;;;;;5049000;28;20277;-77
2024/02/02 01:15:30;;;;;;;;;;;;;;;;;;5049523;28;20410;-78
2024/02/02 01:17:57;;;;;;;;;;;;;;;;;;5048702;28;19929;-79
2024/02/02 01:20:25;;;;;;;;;;;;;;;;;;5048648;28;20011;-77
2024/02/02 01:22:52;;;;;;;;;;;;;;;;;;5049070;28;19936;-80
2024/02/02 01:25:19;;;;;;;;;;;;;;;;;;5049331;28;19967;-77
2024/02/02 01:27:46;;;;;;;;;;;;;;;;;;5041005;28;19964;-77
2024/02/02 01:30:16;;;;;;;;;;;;;;;;;;5049253;28;20027;-76
2024/02/02 01:32:43;;;;;;;;;;;;;;;;;;5048463;28;19935;-76
2024/02/02 01:35:10;;;;;;;;;;;;;;;;;;5049026;28;19982;-76
2024/02/02 01:37:38;;;;;;;;;;;;;;;;;;5043769;28;20494;-76
2024/02/02 01:40:05;;;;;;;;;;;;;;;;;;5047586;28;19936;-77
2024/02/02 01:42:32;;;;;;;;;;;;;;;;;;5039741;28;20395;-75
2024/02/02 01:44:59;;;;;;;;;;;;;;;;;;5048330;28;19937;-77
2024/02/02 01:47:26;;;;;;;;;;;;;;;;;;5048747;28;19940;-77
2024/02/02 01:49:53;;;;;;;;;;;;;;;;;;5048370;28;19971;-76
2024/02/02 01:52:20;;;;;;;;;;;;;;;;;;5047763;28;19975;-76
2024/02/02 01:54:47;;;;;;;;;;;;;;;;;;5048993;28;19936;-75
2024/02/02 01:57:14;;;;;;;;;;;;;;;;;;5047549;28;20362;-75
2024/02/02 01:59:41;;;;;;;;;;;;;;;;;;5050700;28;20315;-76
2024/02/02 02:02:08;;;;;;;;;;;;;;;;;;5048270;28;20008;-77
2024/02/02 02:04:36;;;;;;;;;;;;;;;;;;5049384;28;19939;-77
2024/02/02 02:07:03;;;;;;;;;;;;;;;;;;5038293;28;19929;-76
2024/02/02 02:09:30;;;;;;;;;;;;;;;;;;5046825;28;19946;-76
2024/02/02 02:12:00;;;;;;;;;;;;;;;;;;5043682;28;20354;-75
2024/02/02 02:14:27;;;;;;;;;;;;;;;;;;5048014;28;19972;-76
2024/02/02 02:16:54;;;;;;;;;;;;;;;;;;5048686;28;19928;-75
2024/02/02 02:19:22;;;;;;;;;;;;;;;;;;5047152;28;20663;-76
2024/02/02 02:21:49;;;;;;;;;;;;;;;;;;5047828;28;19928;-75
2024/02/02 02:24:16;;;;;;;;;;;;;;;;;;5047521;28;19932;-76
2024/02/02 02:26:44;;;;;;;;;;;;;;;;;;5047130;28;19929;-76
2024/02/02 02:29:11;;;;;;;;;;;;;;;;;;5043408;28;19936;-76
2024/02/02 02:31:39;;;;;;;;;;;;;;;;;;5046369;28;20400;-76
2024/02/02 02:34:07;;;;;;;;;;;;;;;;;;5054707;28;19982;-75
2024/02/02 02:36:34;;;;;;;;;;;;;;;;;;5044621;28;19929;-75
2024/02/02 02:39:01;;;;;;;;;;;;;;;;;;5048168;28;19929;-77
2024/02/02 02:41:28;;;;;;;;;;;;;;;;;;5047756;28;19936;-78
2024/02/02 02:43:55;;;;;;;;;;;;;;;;;;5049091;28;19928;-76
2024/02/02 02:46:22;;;;;;;;;;;;;;;;;;5049288;28;20045;-78
2024/02/02 02:48:49;;;;;;;;;;;;;;;;;;5048400;28;20388;-77
2024/02/02 02:51:16;;;;;;;;;;;;;;;;;;5052484;28;19932;-78
2024/02/02 02:53:43;;;;;;;;;;;;;;;;;;5047576;28;19928;-80
2024/02/02 02:56:10;;;;;;;;;;;;;;;;;;5047571;28;19998;-77
2024/02/02 02:58:37;;;;;;;;;;;;;;;;;;5047066;28;19990;-76
2024/02/02 03:01:04;;;;;;;;;;;;;;;;;;5046928;28;19963;-75
2024/02/02 03:03:32;;;;;;;;;;;;;;;;;;5047409;28;19951;-74
2024/02/02 03:05:59;;;;;;;;;;;;;;;;;;5047740;28;20030;-74
2024/02/02 03:08:26;;;;;;;;;;;;;;;;;;5047689;28;19932;-75
2024/02/02 03:10:53;;;;;;;;;;;;;;;;;;5047109;28;20434;-76
2024/02/02 03:13:20;;;;;;;;;;;;;;;;;;5047652;28;19928;-78
2024/02/02 03:15:47;;;;;;;;;;;;;;;;;;5046745;28;20008;-76
2024/02/02 03:18:14;;;;;;;;;;;;;;;;;;5043710;28;20350;-77
2024/02/02 03:20:41;;;;;;;;;;;;;;;;;;5047199;28;19968;-76
2024/02/02 03:23:08;;;;;;;;;;;;;;;;;;5047376;28;19929;-77
2024/02/02 03:25:35;;;;;;;;;;;;;;;;;;5052670;28;20273;-76
2024/02/02 03:28:03;;;;;;;;;;;;;;;;;;5047497;28;19986;-75
2024/02/02 03:30:30;;;;;;;;;;;;;;;;;;5045403;28;19924;-76
2024/02/02 03:32:57;;;;;;;;;;;;;;;;;;5047602;28;19966;-77
2024/02/02 03:35:24;;;;;;;;;;;;;;;;;;5046483;28;19936;-75
2024/02/02 03:37:51;;;;;;;;;;;;;;;;;;5047734;28;20039;-76
2024/02/02 03:40:18;;;;;;;;;;;;;;;;;;5046353;28;19930;-76
2024/02/02 03:42:45;;;;;;;;;;;;;;;;;;5048097;28;19929;-76
2024/02/02 03:45:12;;;;;;;;;;;;;;;;;;5047403;28;19982;-76
2024/02/02 03:47:39;;;;;;;;;;;;;;;;;;5047401;28;19932;-77
2024/02/02 03:50:07;;;;;;;;;;;;;;;;;;5045948;28;20361;-76
2024/02/02 03:52:34;;;;;;;;;;;;;;;;;;5047414;28;19929;-77
2024/02/02 03:55:01;;;;;;;;;;;;;;;;;;5046507;28;20127;-75
2024/02/02 03:57:28;;;;;;;;;;;;;;;;;;5046920;28;19936;-76
2024/02/02 03:59:55;;;;;;;;;;;;;;;;;;5043459;28;19928;-77
2024/02/02 04:02:22;;;;;;;;;;;;;;;;;;5045385;28;19935;-76
2024/02/02 04:04:51;;;;;;;;;;;;;;;;;;5043894;28;20893;-76
2024/02/02 04:07:18;;;;;;;;;;;;;;;;;;5051180;28;19933;-75
2024/02/02 04:09:45;;;;;;;;;;;;;;;;;;5050435;28;20424;-76
2024/02/02 04:12:12;;;;;;;;;;;;;;;;;;5049531;28;19932;-75
2024/02/02 04:14:39;;;;;;;;;;;;;;;;;;5050742;28;20000;-75
2024/02/02 04:17:06;;;;;;;;;;;;;;;;;;5052230;28;19929;-75
2024/02/02 04:19:33;;;;;;;;;;;;;;;;;;5044321;28;19975;-75
2024/02/02 04:22:00;;;;;;;;;;;;;;;;;;5049905;28;19929;-75
2024/02/02 04:24:27;;;;;;;;;;;;;;;;;;5048816;28;19978;-74
2024/02/02 04:26:55;;;;;;;;;;;;;;;;;;5050188;28;19987;-74
2024/02/02 04:29:22;;;;;;;;;;;;;;;;;;5049604;28;19929;-75
2024/02/02 04:31:49;;;;;;;;;;;;;;;;;;5050352;28;19936;-74
2024/02/02 04:34:16;;;;;;;;;;;;;;;;;;5051678;28;20157;-75
2024/02/02 04:36:43;;;;;;;;;;;;;;;;;;5050127;28;19975;-74
2024/02/02 04:39:10;;;;;;;;;;;;;;;;;;5050296;28;19928;-72
2024/02/02 04:41:37;;;;;;;;;;;;;;;;;;5049695;28;19932;-73
2024/02/02 04:44:04;;;;;;;;;;;;;;;;;;5050617;28;19928;-74
2024/02/02 04:46:32;;;;;;;;;;;;;;;;;;5051037;28;20023;-74
2024/02/02 04:48:59;;;;;;;;;;;;;;;;;;5049268;28;20311;-75
2024/02/02 04:51:26;;;;;;;;;;;;;;;;;;5050509;28;19928;-75
2024/02/02 04:53:53;;;;;;;;;;;;;;;;;;5048486;28;19928;-74
2024/02/02 04:56:20;;;;;;;;;;;;;;;;;;5049845;28;19937;-75
2024/02/02 04:58:51;;;;;;;;;;;;;;;;;;5049586;28;19937;-75
2024/02/02 05:01:18;;;;;;;;;;;;;;;;;;5049817;28;19929;-76
2024/02/02 05:03:45;;;;;;;;;;;;;;;;;;5049574;28;19936;-76
2024/02/02 05:06:16;;;;;;;;;;;;;;;;;;5049559;28;20280;-74
2024/02/02 05:08:43;;;;;;;;;;;;;;;;;;5051330;28;20456;-77
2024/02/02 05:11:10;;;;;;;;;;;;;;;;;;5049732;28;19936;-76
2024/02/02 05:13:37;;;;;;;;;;;;;;;;;;5043706;28;19976;-75
2024/02/02 05:16:04;;;;;;;;;;;;;;;;;;5049423;28;20388;-76
2024/02/02 05:18:31;;;;;;;;;;;;;;;;;;5051581;28;20295;-77
2024/02/02 05:20:59;;;;;;;;;;;;;;;;;;5049328;28;20441;-75
2024/02/02 05:23:26;;;;;;;;;;;;;;;;;;5050542;28;20185;-75
2024/02/02 05:25:53;;;;;;;;;;;;;;;;;;5048977;28;19936;-76
2024/02/02 05:28:20;;;;;;;;;;;;;;;;;;5048480;28;20334;-74
2024/02/02 05:30:47;;;;;;;;;;;;;;;;;;5049301;28;19951;-75
2024/02/02 05:33:14;;;;;;;;;;;;;;;;;;5049628;28;19936;-76
2024/02/02 05:35:41;;;;;;;;;;;;;;;;;;5035607;28;19960;-77
2024/02/02 05:38:08;;;;;;;;;;;;;;;;;;5048510;28;19990;-75
2024/02/02 05:40:35;;;;;;;;;;;;;;;;;;5049943;28;20398;-75
2024/02/02 05:43:03;;;;;;;;;;;;;;;;;;5048635;28;19987;-78
2024/02/02 05:45:30;;;;;;;;;;;;;;;;;;5049093;28;20391;-75
2024/02/02 05:47:57;;;;;;;;;;;;;;;;;;5048502;28;20383;-76
2024/02/02 05:50:24;;;;;;;;;;;;;;;;;;5048581;28;20300;-76
2024/02/02 05:52:51;;;;;;;;;;;;;;;;;;5048574;28;19944;-76
2024/02/02 05:55:18;;;;;;;;;;;;;;;;;;5047511;28;19940;-76
2024/02/02 05:57:45;;;;;;;;;;;;;;;;;;5049903;28;19972;-75
2024/02/02 06:00:12;;;;;;;;;;;;;;;;;;5048978;28;20474;-76
2024/02/02 06:02:40;;;;;;;;;;;;;;;;;;5048137;28;19974;-77
2024/02/02 06:05:07;;;;;;;;;;;;;;;;;;5047816;28;20308;-78
2024/02/02 06:07:34;;;;;;;;;;;;;;;;;;5048484;28;20031;-76
2024/02/02 06:10:01;;;;;;;;;;;;;;;;;;5047666;28;19929;-76
2024/02/02 06:12:28;;;;;;;;;;;;;;;;;;5047131;28;19948;-74
2024/02/02 06:14:55;;;;;;;;;;;;;;;;;;5047992;28;20289;-83
2024/02/02 06:17:22;;;;;;;;;;;;;;;;;;5047108;28;19974;-82
2024/02/02 06:19:49;;;;;;;;;;;;;;;;;;5047240;28;19928;-81
2024/02/02 06:22:21;;;;;;;;;;;;;;;;;;5043764;28;20011;-84
2024/02/02 06:24:48;;;;;;;;;;;;;;;;;;5047005;28;19998;-81
2024/02/02 06:27:22;;;;;;;;;;;;;;;;;;5042992;28;19936;-83
2024/02/02 06:29:49;;;;;;;;;;;;;;;;;;5037903;28;20315;-82
2024/02/02 06:32:17;;;;;;;;;;;;;;;;;;5046178;28;19932;-84
2024/02/02 06:34:44;;;;;;;;;;;;;;;;;;5046686;28;19936;-83
2024/02/02 06:37:11;;;;;;;;;;;;;;;;;;5045990;28;19928;-83
2024/02/02 06:39:38;;;;;;;;;;;;;;;;;;5047410;28;19932;-83
2024/02/02 06:42:05;;;;;;;;;;;;;;;;;;5048051;28;19947;-81
2024/02/02 06:44:35;;;;;;;;;;;;;;;;;;5048625;28;20501;-83
2024/02/02 06:47:02;;;;;;;;;;;;;;;;;;5043134;28;19928;-82
2024/02/02 06:49:29;;;;;;;;;;;;;;;;;;5047708;28;19973;-82
2024/02/02 06:51:56;;;;;;;;;;;;;;;;;;5047127;28;19944;-83
2024/02/02 06:54:24;;;;;;;;;;;;;;;;;;5048148;28;19955;-82
2024/02/02 06:56:51;;;;;;;;;;;;;;;;;;5047370;28;20315;-82
2024/02/02 06:59:18;;;;;;;;;;;;;;;;;;5050232;28;20035;-84
2024/02/02 07:01:45;;;;;;;;;;;;;;;;;;5047226;28;19936;-80
2024/02/02 07:04:12;;;;;;;;;;;;;;;;;;5049780;28;19948;-82
2024/02/02 07:06:39;;;;;;;;;;;;;;;;;;5041162;28;20044;-82
2024/02/02 07:09:07;;;;;;;;;;;;;;;;;;5046600;28;19935;-78
2024/02/02 07:11:34;;;;;;;;;;;;;;;;;;5043231;28;19932;-82
2024/02/02 07:14:01;;;;;;;;;;;;;;;;;;5044958;28;19928;-84
2024/02/02 07:16:28;;;;;;;;;;;;;;;;;;5047307;28;19929;-79
2024/02/02 07:18:55;;;;;;;;;;;;;;;;;;5049431;28;19935;-79
2024/02/02 07:21:22;;;;;;;;;;;;;;;;;;5046764;28;19928;-80
2024/02/02 07:23:49;;;;;;;;;;;;;;;;;;5046850;28;20368;-76
2024/02/02 07:26:15;;;;;;;;;;;;;;;;;;5046353;28;19936;-73
2024/02/02 07:28:42;;;;;;;;;;;;;;;;;;5044498;28;19929;-82
2024/02/02 07:31:09;;;;;;;;;;;;;;;;;;5047484;28;19952;-79
2024/02/02 07:33:36;;;;;;;;;;;;;;;;;;5046729;28;20399;-84
2024/02/02 07:36:03;;;;;;;;;;;;;;;;;;5044973;28;19933;-83
2024/02/02 07:38:29;;;;;;;;;;;;;;;;;;5047207;28;19929;-83
2024/02/02 07:40:58;;;;;;;;;;;;;;;;;;5054901;28;19936;-83
2024/02/02 07:43:25;;;;;;;;;;;;;;;;;;5053704;28;19929;-82
2024/02/02 07:45:52;;;;;;;;;;;;;;;;;;5054068;28;19960;-84
2024/02/02 07:48:19;;;;;;;;;;;;;;;;;;5045216;28;20449;-83
2024/02/02 07:50:46;;;;;;;;;;;;;;;;;;5035512;28;19929;-78
2024/02/02 07:53:13;;;;;;;;;;;;;;;;;;5046742;28;19943;-84
2024/02/02 07:55:41;;;;;;;;;;;;;;;;;;5045754;28;19936;-83
2024/02/02 07:58:08;;;;;;;;;;;;;;;;;;5054099;28;19928;-83
2024/02/02 08:00:35;;;;;;;;;;;;;;;;;;5047807;28;20344;-83
2024/02/02 08:03:02;;;;;;;;;;;;;;;;;;5039553;28;19929;-85
2024/02/02 08:05:29;;;;;;;;;;;;;;;;;;5050187;28;19943;-80
2024/02/02 08:07:56;;;;;;;;;;;;;;;;;;5043750;28;19933;-86
2024/02/02 08:10:23;;;;;;;;;;;;;;;;;;5036088;28;20678;-80
2024/02/02 08:12:50;;;;;;;;;;;;;;;;;;5038508;28;19933;-76
2024/02/02 08:15:17;;;;;;;;;;;;;;;;;;5040809;28;20347;-75
2024/02/02 08:17:44;;;;;;;;;;;;;;;;;;5035823;28;20379;-77
2024/02/02 08:20:12;;;;;;;;;;;;;;;;;;5034380;28;20346;-79
2024/02/02 08:22:39;;;;;;;;;;;;;;;;;;5038851;28;20559;-85
2024/02/02 08:25:06;;;;;;;;;;;;;;;;;;5049224;28;19929;-84
2024/02/02 08:27:33;;;;;;;;;;;;;;;;;;5049480;28;19928;-82
2024/02/02 08:30:00;;;;;;;;;;;;;;;;;;5047760;28;19935;-83
2024/02/02 08:32:27;;;;;;;;;;;;;;;;;;5045995;28;19936;-74
2024/02/02 08:34:54;;;;;;;;;;;;;;;;;;5045309;28;19938;-74
2024/02/02 08:37:21;;;;;;;;;;;;;;;;;;5044219;28;19928;-75
2024/02/02 08:39:48;;;;;;;;;;;;;;;;;;5044898;28;19990;-75
2024/02/02 08:42:15;;;;;;;;;;;;;;;;;;5044621;28;19940;-81
2024/02/02 08:44:42;;;;;;;;;;;;;;;;;;5047815;28;19932;-85
2024/02/02 08:47:09;;;;;;;;;;;;;;;;;;5048887;28;19939;-81
2024/02/02 08:49:37;;;;;;;;;;;;;;;;;;5048050;28;20399;-86
2024/02/02 08:52:07;;;;;;;;;;;;;;;;;;5045547;28;19937;-84
2024/02/02 08:54:36;;;;;;;;;;;;;;;;;;5047350;28;19929;-82
2024/02/02 08:57:03;;;;;;;;;;;;;;;;;;5042887;28;19933;-86
2024/02/02 08:59:30;;;;;;;;;;;;;;;;;;5046876;28;20406;-86
2024/02/02 09:01:57;;;;;;;;;;;;;;;;;;5041191;28;20404;-84
2024/02/02 09:04:24;;;;;;;;;;;;;;;;;;5044658;28;19939;-85
2024/02/02 09:06:51;;;;;;;;;;;;;;;;;;5046329;28;19929;-85
2024/02/02 09:09:19;;;;;;;;;;;;;;;;;;5042411;28;19933;-84
2024/02/02 09:11:47;;;;;;;;;;;;;;;;;;5046803;28;19929;-81
2024/02/02 09:14:17;;;;;;;;;;;;;;;;;;5048927;28;19933;-86
2024/02/02 09:16:44;;;;;;;;;;;;;;;;;;5048452;28;20016;-85
2024/02/02 09:19:10;;;;;;;;;;;;;;;;;;5049444;28;19929;-85
2024/02/02 09:21:37;;;;;;;;;;;;;;;;;;5047031;28;19929;-86
2024/02/02 09:24:04;;;;;;;;;;;;;;;;;;5046230;28;20005;-78
2024/02/02 09:26:31;;;;;;;;;;;;;;;;;;5045368;28;20380;-86
2024/02/02 09:28:59;;;;;;;;;;;;;;;;;;5042638;28;19979;-85
2024/02/02 09:31:26;;;;;;;;;;;;;;;;;;5050077;28;19929;-85
2024/02/02 09:33:53;;;;;;;;;;;;;;;;;;5039714;28;20018;-86
2024/02/02 09:36:20;;;;;;;;;;;;;;;;;;5045770;28;20016;-86
2024/02/02 09:38:47;;;;;;;;;;;;;;;;;;5046712;28;19982;-84
2024/02/02 09:41:16;;;;;;;;;;;;;;;;;;5049242;28;19928;-83
2024/02/02 09:43:43;;;;;;;;;;;;;;;;;;5048939;28;19932;-84
2024/02/02 09:46:10;;;;;;;;;;;;;;;;;;5046112;28;19951;-83
2024/02/02 09:48:37;;;;;;;;;;;;;;;;;;5047794;28;20036;-86
2024/02/02 09:51:04;;;;;;;;;;;;;;;;;;5047183;28;19929;-85
2024/02/02 09:53:32;;;;;;;;;;;;;;;;;;5047340;28;20339;-83
2024/02/02 09:55:59;;;;;;;;;;;;;;;;;;5040975;28;19955;-80
2024/02/02 09:58:26;;;;;;;;;;;;;;;;;;5042245;28;20281;-79
2024/02/02 10:00:53;;;;;;;;;;;;;;;;;;5045081;28;19935;-79
2024/02/02 10:03:21;;;;;;;;;;;;;;;;;;5048343;28;19929;-82
2024/02/02 10:05:48;;;;;;;;;;;;;;;;;;5049213;28;19932;-84
2024/02/02 10:08:15;;;;;;;;;;;;;;;;;;5045653;28;19939;-84
2024/02/02 10:10:42;;;;;;;;;;;;;;;;;;5052176;28;20307;-85
2024/02/02 10:13:09;;;;;;;;;;;;;;;;;;5052616;28;20380;-84
2024/02/02 10:15:36;;;;;;;;;;;;;;;;;;5046455;28;20510;-81
2024/02/02 10:18:03;;;;;;;;;;;;;;;;;;5037228;28;19928;-83
2024/02/02 10:20:31;;;;;;;;;;;;;;;;;;5036893;28;20025;-81
2024/02/02 10:22:58;;;;;;;;;;;;;;;;;;5033606;28;19940;-84
2024/02/02 10:25:25;;;;;;;;;;;;;;;;;;5037156;28;20376;-84
2024/02/02 10:27:52;;;;;;;;;;;;;;;;;;5046118;28;19937;-84
2024/02/02 10:30:19;;;;;;;;;;;;;;;;;;5047980;28;19925;-84
2024/02/02 10:32:46;;;;;;;;;;;;;;;;;;5047070;28;19935;-79
2024/02/02 10:35:13;;;;;;;;;;;;;;;;;;5047711;28;19932;-79
2024/02/02 10:37:41;;;;;;;;;;;;;;;;;;5049268;28;19963;-89
2024/02/02 10:40:07;;;;;;;;;;;;;;;;;;5048426;28;20029;-84
2024/02/02 10:42:34;;;;;;;;;;;;;;;;;;5047763;28;19936;-84
2024/02/02 10:45:01;;;;;;;;;;;;;;;;;;5041022;28;19929;-84
2024/02/02 10:47:28;;;;;;;;;;;;;;;;;;5049433;28;20006;-83
2024/02/02 10:49:55;;;;;;;;;;;;;;;;;;5042373;28;19933;-81
2024/02/02 10:52:22;;;;;;;;;;;;;;;;;;5035123;28;19928;-81
2024/02/02 10:54:51;;;;;;;;;;;;;;;;;;5040339;28;19933;-81
2024/02/02 10:57:18;;;;;;;;;;;;;;;;;;5036952;28;19935;-82
2024/02/02 10:59:45;;;;;;;;;;;;;;;;;;5040034;28;19932;-78
2024/02/02 11:02:12;;;;;;;;;;;;;;;;;;5039318;28;20387;-87
2024/02/02 11:04:39;;;;;;;;;;;;;;;;;;5035963;28;19944;-84
2024/02/02 11:07:06;;;;;;;;;;;;;;;;;;5038450;28;19933;-85
2024/02/02 11:09:33;;;;;;;;;;;;;;;;;;5037274;28;19929;-84
2024/02/02 11:12:00;;;;;;;;;;;;;;;;;;5036144;28;20449;-86
2024/02/02 11:14:27;;;;;;;;;;;;;;;;;;5038329;28;19935;-82
2024/02/02 11:16:55;;;;;;;;;;;;;;;;;;5039905;28;19929;-85
2024/02/02 11:19:22;;;;;;;;;;;;;;;;;;5039263;28;19955;-83
2024/02/02 11:21:49;;;;;;;;;;;;;;;;;;5041728;28;19933;-74
2024/02/02 11:24:16;;;;;;;;;;;;;;;;;;5032938;28;20062;-75
2024/02/02 11:26:43;;;;;;;;;;;;;;;;;;5037681;28;19929;-86
2024/02/02 11:29:10;;;;;;;;;;;;;;;;;;5039321;28;19932;-82
2024/02/02 11:31:37;;;;;;;;;;;;;;;;;;5039505;28;19936;-86
2024/02/02 11:34:05;;;;;;;;;;;;;;;;;;5037564;28;19972;-82
2024/02/02 11:36:32;;;;;;;;;;;;;;;;;;5035042;28;20472;-85
2024/02/02 11:38:59;;;;;;;;;;;;;;;;;;5035719;28;20514;-86
2024/02/02 11:41:26;;;;;;;;;;;;;;;;;;5032959;28;20303;-86
2024/02/02 11:43:55;;;;;;;;;;;;;;;;;;5036586;28;19928;-85
2024/02/02 11:46:22;;;;;;;;;;;;;;;;;;5040737;28;20435;-77
2024/02/02 11:48:50;;;;;;;;;;;;;;;;;;5035882;28;19967;-86
2024/02/02 11:51:17;;;;;;;;;;;;;;;;;;5037604;28;19971;-83
2024/02/02 11:53:44;;;;;;;;;;;;;;;;;;5034396;28;19929;-85
2024/02/02 11:56:11;;;;;;;;;;;;;;;;;;5034604;28;19936;-86
2024/02/02 11:58:38;;;;;;;;;;;;;;;;;;5034314;28;19964;-81
2024/02/02 12:01:05;;;;;;;;;;;;;;;;;;5036705;28;19932;-82
2024/02/02 12:03:32;;;;;;;;;;;;;;;;;;5040034;28;19940;-86
2024/02/02 12:06:00;;;;;;;;;;;;;;;;;;5033597;28;21852;-84
2024/02/02 12:08:27;;;;;;;;;;;;;;;;;;5031917;28;19939;-84
2024/02/02 12:10:54;;;;;;;;;;;;;;;;;;5033803;28;20430;-85
2024/02/02 12:13:21;;;;;;;;;;;;;;;;;;5034214;28;19998;-81
2024/02/02 12:15:50;;;;;;;;;;;;;;;;;;5034924;28;20039;-84
2024/02/02 12:18:17;;;;;;;;;;;;;;;;;;5031210;28;19944;-87
2024/02/02 12:20:44;;;;;;;;;;;;;;;;;;5038421;28;19932;-82
2024/02/02 12:23:11;;;;;;;;;;;;;;;;;;5031736;28;20070;-82
2024/02/02 12:25:38;;;;;;;;;;;;;;;;;;5035364;28;20384;-86
2024/02/02 12:28:05;;;;;;;;;;;;;;;;;;5039975;28;20002;-85
2024/02/02 12:30:32;;;;;;;;;;;;;;;;;;5036104;28;20193;-87
2024/02/02 12:33:00;;;;;;;;;;;;;;;;;;5044767;28;19938;-86
2024/02/02 12:35:27;;;;;;;;;;;;;;;;;;5039334;28;20307;-86
2024/02/02 12:37:55;;;;;;;;;;;;;;;;;;5046488;28;19928;-86
2024/02/02 12:40:23;;;;;;;;;;;;;;;;;;5041219;28;19936;-86
2024/02/02 12:42:50;;;;;;;;;;;;;;;;;;5039766;28;19933;-86
2024/02/02 12:45:17;;;;;;;;;;;;;;;;;;5039408;28;19932;-86
2024/02/02 12:47:45;;;;;;;;;;;;;;;;;;5035057;28;19987;-84
2024/02/02 12:50:16;;;;;;;;;;;;;;;;;;5040461;28;19933;-85
2024/02/02 12:52:44;;;;;;;;;;;;;;;;;;5038247;28;19935;-83
2024/02/02 12:55:11;;;;;;;;;;;;;;;;;;5041017;28;19932;-84
2024/02/02 12:57:38;;;;;;;;;;;;;;;;;;5039954;28;20475;-88
2024/02/02 13:00:05;;;;;;;;;;;;;;;;;;5043512;28;19929;-84
2024/02/02 13:02:32;;;;;;;;;;;;;;;;;;5048141;28;19960;-85
2024/02/02 13:05:02;;;;;;;;;;;;;;;;;;5044195;28;20387;-85
2024/02/02 13:07:29;;;;;;;;;;;;;;;;;;5044714;28;19975;-86
2024/02/02 13:09:56;;;;;;;;;;;;;;;;;;5040008;28;19933;-85
2024/02/02 13:12:23;;;;;;;;;;;;;;;;;;5046775;28;19933;-87
2024/02/02 13:14:50;;;;;;;;;;;;;;;;;;5047453;28;19928;-83
2024/02/02 13:17:18;;;;;;;;;;;;;;;;;;5046614;28;19936;-84
2024/02/02 13:19:45;;;;;;;;;;;;;;;;;;5041484;28;19929;-84
2024/02/02 13:22:13;;;;;;;;;;;;;;;;;;5044754;28;19929;-86
2024/02/02 13:24:40;;;;;;;;;;;;;;;;;;5043280;28;19932;-82
2024/02/02 13:27:07;;;;;;;;;;;;;;;;;;5043588;28;19987;-86
2024/02/02 13:29:34;;;;;;;;;;;;;;;;;;5032631;28;20307;-84
2024/02/02 13:32:01;;;;;;;;;;;;;;;;;;5039635;28;19936;-86
2024/02/02 13:34:28;;;;;;;;;;;;;;;;;;5036138;28;19936;-85
2024/02/02 13:36:55;;;;;;;;;;;;;;;;;;5047076;28;19975;-78
2024/02/02 13:39:22;;;;;;;;;;;;;;;;;;5041740;28;19979;-82
2024/02/02 13:41:49;;;;;;;;;;;;;;;;;;5037817;28;19998;-79
2024/02/02 13:44:18;;;;;;;;;;;;;;;;;;5035529;28;19936;-82
2024/02/02 13:46:45;;;;;;;;;;;;;;;;;;5034717;28;19932;-82
2024/02/02 13:49:13;;;;;;;;;;;;;;;;;;5035697;28;20000;-83
2024/02/02 13:51:41;;;;;;;;;;;;;;;;;;5043650;28;19935;-81
2024/02/02 13:54:08;;;;;;;;;;;;;;;;;;5033800;28;20035;-85
2024/02/02 13:56:38;;;;;;;;;;;;;;;;;;5044203;28;19928;-84
2024/02/02 13:59:05;;;;;;;;;;;;;;;;;;5044279;28;20110;-84
2024/02/02 14:01:32;;;;;;;;;;;;;;;;;;5042544;28;20341;-81
2024/02/02 14:03:59;;;;;;;;;;;;;;;;;;5050873;28;19932;-82
2024/02/02 14:06:26;;;;;;;;;;;;;;;;;;5050885;28;19932;-84
2024/02/02 14:08:54;;;;;;;;;;;;;;;;;;5049937;28;19928;-86
2024/02/02 14:11:21;;;;;;;;;;;;;;;;;;5039998;28;20350;-79
2024/02/02 14:13:48;;;;;;;;;;;;;;;;;;5040076;28;19928;-80
2024/02/02 14:16:16;;;;;;;;;;;;;;;;;;5041820;28;19936;-79
2024/02/02 14:18:46;;;;;;;;;;;;;;;;;;5037377;28;19939;-77
2024/02/02 14:21:13;;;;;;;;;;;;;;;;;;5037457;28;19929;-78
2024/02/02 14:23:40;;;;;;;;;;;;;;;;;;5037502;28;20027;-76
2024/02/02 14:26:07;;;;;;;;;;;;;;;;;;5039868;28;19935;-80
2024/02/02 14:28:34;;;;;;;;;;;;;;;;;;5035980;28;20025;-75
2024/02/02 14:31:02;;;;;;;;;;;;;;;;;;5037370;28;19933;-76
2024/02/02 14:33:29;;;;;;;;;;;;;;;;;;5035982;28;20453;-73
2024/02/02 14:35:56;;;;;;;;;;;;;;;;;;5038269;28;19933;-74
2024/02/02 14:38:23;;;;;;;;;;;;;;;;;;5048223;28;19928;-74
2024/02/02 14:40:52;;;;;;;;;;;;;;;;;;5038946;28;20422;-76
2024/02/02 14:43:21;;;;;;;;;;;;;;;;;;5044067;28;19928;-73
2024/02/02 14:45:48;;;;;;;;;;;;;;;;;;5048066;28;20395;-74
2024/02/02 14:48:16;;;;;;;;;;;;;;;;;;5041390;28;19933;-75
2024/02/02 14:50:44;;;;;;;;;;;;;;;;;;5040388;28;19972;-74
2024/02/02 14:53:11;;;;;;;;;;;;;;;;;;5039549;28;19929;-75
2024/02/02 14:55:38;;;;;;;;;;;;;;;;;;5044438;28;19933;-74
2024/02/02 14:58:05;;;;;;;;;;;;;;;;;;5044332;28;19958;-73
2024/02/02 15:00:33;;;;;;;;;;;;;;;;;;5045386;28;19929;-74
2024/02/02 15:03:00;;;;;;;;;;;;;;;;;;5042864;28;20028;-73
2024/02/02 15:05:27;;;;;;;;;;;;;;;;;;5045536;28;19928;-78
2024/02/02 15:07:54;;;;;;;;;;;;;;;;;;5043976;28;19941;-71
2024/02/02 15:10:21;;;;;;;;;;;;;;;;;;5041469;28;20360;-71
2024/02/02 15:12:48;;;;;;;;;;;;;;;;;;5040092;28;20325;-72
2024/02/02 15:15:15;;;;;;;;;;;;;;;;;;5047462;28;20023;-72
2024/02/02 15:17:42;;;;;;;;;;;;;;;;;;5031069;28;19936;-74
2024/02/02 15:20:10;;;;;;;;;;;;;;;;;;5034018;28;19963;-71
2024/02/02 15:22:39;;;;;;;;;;;;;;;;;;5034119;28;19985;-74
2024/02/02 15:25:08;;;;;;;;;;;;;;;;;;5037057;28;20043;-72
2024/02/02 15:27:35;;;;;;;;;;;;;;;;;;5043739;28;19952;-76
2024/02/02 15:30:02;;;;;;;;;;;;;;;;;;5042147;28;19935;-72
2024/02/02 15:32:29;;;;;;;;;;;;;;;;;;5044049;28;19980;-82
2024/02/02 15:34:57;;;;;;;;;;;;;;;;;;5044764;28;19935;-81
2024/02/02 15:37:25;;;;;;;;;;;;;;;;;;5043619;28;19948;-84
2024/02/02 15:39:57;;;;;;;;;;;;;;;;;;5041274;28;19936;-87
2024/02/02 15:42:24;;;;;;;;;;;;;;;;;;5043392;28;19939;-85
2024/02/02 15:44:51;;;;;;;;;;;;;;;;;;5042487;28;19932;-87
2024/02/02 15:47:19;;;;;;;;;;;;;;;;;;5042831;28;19933;-87
2024/02/02 15:49:46;;;;;;;;;;;;;;;;;;5046525;28;20319;-87
2024/02/02 15:52:13;;;;;;;;;;;;;;;;;;5047834;28;19991;-88
2024/02/02 15:54:40;;;;;;;;;;;;;;;;;;5039800;28;19967;-84
2024/02/02 15:57:07;;;;;;;;;;;;;;;;;;5041302;28;19933;-84
2024/02/02 15:59:37;;;;;;;;;;;;;;;;;;5047084;28;19979;-85
2024/02/02 16:02:08;;;;;;;;;;;;;;;;;;5048958;28;19974;-84
2024/02/02 16:04:38;;;;;;;;;;;;;;;;;;5039986;28;19933;-89
2024/02/02 16:07:05;;;;;;;;;;;;;;;;;;5046859;28;19929;-87
2024/02/02 16:12:22;;;;;;;;;;;;;;;;;;5041037;28;19987;-86
2024/02/02 16:14:56;;;;;;;;;;;;;;;;;;5046623;28;19987;-89
2024/02/02 16:17:30;;;;;;;;;;;;;;;;;;5048098;28;19932;-87
2024/02/02 16:20:00;;;;;;;;;;;;;;;;;;5047475;28;19984;-86
2024/02/02 16:22:30;;;;;;;;;;;;;;;;;;5045879;28;20023;-90
2024/02/02 16:25:00;;;;;;;;;;;;;;;;;;5049462;28;19979;-89
2024/02/02 16:27:30;;;;;;;;;;;;;;;;;;5046012;28;19952;-87
2024/02/02 16:29:58;;;;;;;;;;;;;;;;;;5050491;28;19929;-90
2024/02/02 16:32:28;;;;;;;;;;;;;;;;;;5053644;28;19952;-86
2024/02/02 16:34:55;;;;;;;;;;;;;;;;;;5054033;28;20450;-90
2024/02/02 16:37:23;;;;;;;;;;;;;;;;;;5052639;28;19928;-89
2024/02/02 16:39:50;;;;;;;;;;;;;;;;;;5053724;28;20023;-91
2024/02/02 16:42:18;;;;;;;;;;;;;;;;;;5051541;28;19935;-91
2024/02/02 16:44:45;;;;;;;;;;;;;;;;;;5051523;28;19929;-84
2024/02/02 16:47:15;;;;;;;;;;;;;;;;;;5046011;28;19929;-85
2024/02/02 16:49:46;;;;;;;;;;;;;;;;;;5049674;28;20027;-89